createdAt,value
2022-09-09T00:04:30.507Z,37.31
2022-09-09T00:09:43.844Z,37.52
2022-09-09T00:14:52.897Z,37.85
2022-09-09T00:20:15.286Z,38.31
2022-09-09T00:25:25.489Z,38.34
2022-09-09T00:30:33.867Z,38.00
2022-09-09T00:35:39.600Z,37.57
2022-09-09T00:40:52.356Z,38.14
2022-09-09T00:46:15.747Z,38.12
2022-09-09T00:51:31.528Z,37.39
2022-09-09T00:56:47.623Z,37.65
2022-09-09T01:01:51.887Z,37.35
2022-09-09T01:06:58.173Z,37.19
2022-09-09T01:12:01.439Z,37.74
2022-09-09T01:17:11.189Z,38.27
2022-09-09T01:22:35.871Z,37.92
2022-09-09T01:27:45.094Z,37.04
2022-09-09T01:32:52.641Z,37.56
2022-09-09T01:37:56.135Z,37.81
2022-09-09T01:42:59.911Z,37.89
2022-09-09T01:48:04.477Z,37.73
2022-09-09T01:53:20.595Z,37.68
2022-09-09T01:58:39.545Z,38.06
2022-09-09T02:03:45.813Z,38.16
2022-09-09T02:08:58.177Z,38.00
2022-09-09T02:14:05.235Z,38.24
2022-09-09T02:19:27.635Z,37.71
2022-09-09T02:24:41.391Z,38.05
2022-09-09T02:29:53.600Z,37.59
2022-09-09T02:35:13.409Z,37.42
2022-09-09T02:40:18.327Z,37.32
2022-09-09T02:45:50.458Z,37.35
2022-09-09T02:51:02.351Z,37.35
2022-09-09T02:56:17.328Z,37.35
2022-09-09T03:01:24.566Z,37.11
2022-09-09T03:06:28.600Z,37.14
2022-09-09T03:11:41.120Z,37.49
2022-09-09T03:16:45.615Z,38.60
2022-09-09T03:21:49.547Z,39.27
2022-09-09T03:26:52.840Z,39.01
2022-09-09T03:31:56.163Z,38.80
2022-09-09T03:37:00.516Z,39.04
2022-09-09T03:42:05.235Z,38.55
2022-09-09T03:47:09.923Z,38.63
2022-09-09T03:52:14.828Z,38.30
2022-09-09T03:57:18.862Z,38.64
2022-09-09T04:02:23.490Z,39.18
2022-09-09T04:07:28.511Z,39.40
2022-09-09T04:12:33.396Z,39.86
2022-09-09T04:17:37.704Z,39.92
2022-09-09T04:22:41.295Z,39.03
2022-09-09T04:27:44.249Z,38.41
2022-09-09T04:32:47.569Z,37.83
2022-09-09T04:37:50.960Z,38.79
2022-09-09T04:42:54.138Z,38.27
2022-09-09T04:47:57.016Z,37.20
2022-09-09T04:53:02.409Z,35.72
2022-09-09T04:58:08.028Z,35.25
2022-09-09T05:03:12.450Z,36.17
2022-09-09T05:08:16.670Z,35.06
2022-09-09T05:13:21.487Z,35.87
2022-09-09T05:18:25.074Z,35.75
2022-09-09T05:23:28.936Z,35.70
2022-09-09T05:28:32.747Z,35.30
2022-09-09T05:33:37.525Z,34.34
2022-09-09T05:38:42.314Z,34.82
2022-09-09T05:43:48.266Z,34.27
2022-09-09T05:48:53.020Z,34.78
2022-09-09T05:54:01.059Z,34.46
2022-09-09T05:59:08.132Z,34.31
2022-09-09T06:04:12.269Z,32.03
2022-09-09T06:09:17.047Z,30.80
2022-09-09T06:14:20.704Z,29.44
2022-09-09T06:19:28.130Z,29.88
2022-09-09T06:24:34.533Z,29.87
2022-09-09T06:29:39.805Z,27.67
2022-09-09T06:34:44.992Z,27.35
2022-09-09T06:39:49.629Z,27.47
2022-09-09T06:44:53.610Z,27.13
2022-09-09T06:50:12.390Z,25.81
2022-09-09T06:55:18.858Z,25.45
2022-09-09T07:00:22.294Z,25.17
2022-09-09T07:05:27.234Z,25.60
2022-09-09T07:10:30.591Z,23.66
2022-09-09T07:15:34.900Z,23.34
2022-09-09T07:20:38.721Z,22.77
2022-09-09T07:25:46.561Z,24.31
2022-09-09T07:31:00.665Z,25.81
2022-09-09T07:36:08.396Z,25.14
2022-09-09T07:41:13.400Z,25.44
2022-09-09T07:46:20.832Z,23.85
2022-09-09T07:51:26.261Z,24.86
2022-09-09T07:56:33.521Z,24.27
2022-09-09T08:01:40.572Z,23.00
2022-09-09T08:06:47.765Z,23.26
2022-09-09T08:11:53.045Z,25.04
2022-09-09T08:16:57.432Z,23.66
2022-09-09T08:22:04.907Z,23.92
2022-09-09T08:27:11.279Z,23.20
2022-09-09T08:32:18.021Z,24.70
2022-09-09T08:37:23.018Z,25.41
2022-09-09T08:42:42.161Z,26.19
2022-09-09T08:47:54.270Z,26.08
2022-09-09T08:53:08.494Z,25.40
2022-09-09T08:58:20.275Z,21.95
2022-09-09T09:03:28.760Z,21.27
2022-09-09T09:08:45.263Z,21.69
2022-09-09T09:13:54.229Z,22.35
2022-09-09T09:18:58.673Z,23.01
2022-09-09T09:24:07.710Z,22.70
2022-09-09T09:29:13.567Z,23.03
2022-09-09T09:34:19.298Z,22.43
2022-09-09T09:44:49.630Z,25.16
2022-09-09T09:50:03.651Z,23.67
2022-09-09T09:55:15.904Z,26.14
2022-09-09T10:00:23.326Z,23.72
2022-09-09T10:05:46.267Z,22.34
2022-09-09T10:11:08.739Z,21.71
2022-09-09T10:16:20.747Z,22.49
2022-09-09T10:21:33.526Z,22.24
2022-09-09T10:26:42.033Z,23.53
2022-09-09T10:32:06.785Z,22.05
2022-09-09T10:37:24.807Z,22.58
2022-09-09T10:42:32.253Z,23.06
2022-09-09T10:47:43.254Z,23.39
2022-09-09T10:52:54.629Z,23.74
2022-09-09T10:58:00.120Z,24.15
2022-09-09T11:03:04.745Z,23.40
2022-09-09T11:08:13.973Z,23.58
2022-09-09T11:13:25.984Z,22.26
2022-09-09T11:18:31.103Z,22.86
2022-09-09T11:23:41.977Z,21.41
2022-09-09T11:29:02.852Z,22.36
2022-09-09T11:34:26.777Z,22.68
2022-09-09T11:39:36.573Z,20.86
2022-09-09T11:44:39.788Z,21.38
2022-09-09T11:49:43.663Z,21.85
2022-09-09T11:54:48.683Z,22.13
2022-09-09T11:59:56.989Z,22.04
2022-09-09T12:05:01.931Z,22.31
2022-09-09T12:10:08.442Z,20.83
2022-09-09T12:15:12.081Z,21.31
2022-09-09T12:20:16.638Z,20.67
2022-09-09T12:25:38.275Z,20.29
2022-09-09T12:30:41.827Z,20.91
2022-09-09T12:35:47.276Z,21.03
2022-09-09T12:40:58.608Z,21.05
2022-09-09T12:46:09.909Z,19.83
2022-09-09T12:51:20.909Z,19.79
2022-09-09T12:56:27.941Z,19.96
2022-09-09T13:01:33.562Z,20.28
2022-09-09T13:06:36.997Z,20.91
2022-09-09T13:11:48.006Z,21.40
2022-09-09T13:17:01.160Z,22.28
2022-09-09T13:22:22.559Z,23.55
2022-09-09T13:27:40.057Z,22.69
2022-09-09T13:32:43.123Z,22.91
2022-09-09T13:37:47.418Z,24.60
2022-09-09T13:42:55.497Z,26.16
2022-09-09T13:48:09.554Z,27.09
2022-09-09T13:53:12.461Z,26.53
2022-09-09T13:58:19.439Z,27.07
2022-09-09T14:03:22.869Z,28.22
2022-09-09T14:08:27.771Z,27.91
2022-09-09T14:13:30.777Z,28.90
2022-09-09T14:18:35.500Z,28.96
2022-09-09T14:23:39.406Z,28.52
2022-09-09T14:28:59.395Z,29.11
2022-09-09T14:34:03.059Z,30.02
2022-09-09T14:39:06.868Z,30.10
2022-09-09T14:44:09.868Z,30.43
2022-09-09T14:49:14.080Z,30.33
2022-09-09T14:54:17.966Z,30.37
2022-09-09T14:59:21.256Z,29.69
2022-09-09T15:04:25.229Z,29.33
2022-09-09T15:09:28.195Z,29.56
2022-09-09T15:14:32.319Z,29.64
2022-09-09T15:19:35.562Z,30.20
2022-09-09T15:24:38.256Z,30.26
2022-09-09T15:29:42.962Z,29.56
2022-09-09T15:34:47.418Z,30.51
2022-09-09T15:39:51.164Z,31.15
2022-09-09T15:44:54.740Z,32.42
2022-09-09T15:49:58.315Z,32.82
2022-09-09T15:55:01.950Z,32.99
2022-09-09T16:00:06.205Z,33.84
2022-09-09T16:05:09.575Z,35.60
2022-09-09T16:10:14.878Z,36.08
2022-09-09T16:15:18.227Z,36.25
2022-09-09T16:20:21.982Z,37.71
2022-09-09T16:25:25.784Z,38.68
2022-09-09T16:30:29.455Z,39.99
2022-09-09T16:35:32.315Z,40.61
2022-09-09T16:40:36.233Z,41.68
2022-09-09T16:45:43.185Z,42.96
2022-09-09T16:50:47.244Z,43.97
2022-09-09T16:55:50.156Z,45.14
2022-09-09T17:00:59.817Z,46.25
2022-09-09T17:06:05.405Z,48.66
2022-09-09T17:11:19.872Z,48.55
2022-09-09T17:16:25.376Z,49.19
2022-09-09T17:21:30.462Z,50.76
2022-09-09T17:26:34.597Z,51.55
2022-09-09T17:31:38.192Z,51.69
2022-09-09T17:36:41.820Z,52.16
2022-09-09T17:41:45.411Z,52.97
2022-09-09T17:46:49.001Z,53.42
2022-09-09T17:51:53.081Z,54.10
2022-09-09T17:56:56.253Z,54.40
2022-09-09T18:01:59.478Z,54.90
2022-09-09T18:07:02.341Z,56.20
2022-09-09T18:12:05.846Z,56.19
2022-09-09T18:17:10.124Z,56.61
2022-09-09T18:22:14.042Z,56.84
2022-09-09T18:27:17.373Z,57.56
2022-09-09T18:32:20.338Z,57.51
2022-09-09T18:37:24.319Z,57.60
2022-09-09T18:42:27.803Z,58.18
2022-09-09T18:47:31.854Z,58.54
2022-09-09T18:52:35.475Z,58.09
2022-09-09T18:57:39.088Z,59.20
2022-09-09T19:02:43.152Z,59.13
2022-09-09T19:07:45.879Z,59.02
2022-09-09T19:12:49.761Z,58.88
2022-09-09T19:17:53.235Z,58.91
2022-09-09T19:22:57.604Z,60.09
2022-09-09T19:28:01.882Z,59.72
2022-09-09T19:33:05.871Z,59.12
2022-09-09T19:38:09.707Z,58.74
2022-09-09T19:43:15.118Z,58.12
2022-09-09T19:48:18.697Z,58.32
2022-09-09T19:53:22.471Z,58.27
2022-09-09T19:58:25.353Z,55.75
2022-09-09T20:03:29.335Z,55.60
2022-09-09T20:08:33.598Z,55.49
2022-09-09T20:13:39.040Z,54.76
2022-09-09T20:18:45.147Z,55.62
2022-09-09T20:23:48.813Z,54.50
2022-09-09T20:28:53.392Z,55.08
2022-09-09T20:33:57.580Z,56.36
2022-09-09T20:39:01.854Z,56.75
2022-09-09T20:44:06.713Z,57.33
2022-09-09T20:49:11.022Z,57.23
2022-09-09T20:54:16.496Z,57.95
2022-09-09T20:59:21.623Z,57.71
2022-09-09T21:04:25.646Z,57.44
2022-09-09T21:09:29.379Z,57.41
2022-09-09T21:14:32.940Z,57.78
2022-09-09T21:19:36.678Z,57.67
2022-09-09T21:24:39.573Z,58.06
2022-09-09T21:29:43.251Z,57.75
2022-09-09T21:34:46.509Z,57.46
2022-09-09T21:39:49.165Z,58.03
2022-09-09T21:44:52.855Z,57.69
2022-09-09T21:49:56.292Z,58.52
2022-09-09T21:54:59.612Z,58.33
2022-09-09T22:00:03.981Z,58.60
2022-09-09T22:05:16.458Z,59.54
2022-09-09T22:10:21.430Z,58.96
2022-09-09T22:15:24.418Z,59.30
2022-09-09T22:20:28.064Z,59.39
2022-09-09T22:25:35.814Z,58.34
2022-09-09T22:30:39.992Z,57.16
2022-09-09T22:35:43.703Z,57.84
2022-09-09T22:40:48.176Z,58.59
2022-09-09T22:45:52.151Z,58.74
2022-09-09T22:51:00.722Z,59.82
2022-09-09T22:56:05.656Z,60.49
2022-09-09T23:01:12.058Z,57.81
2022-09-09T23:06:22.958Z,60.01
2022-09-09T23:11:30.661Z,59.36
2022-09-09T23:16:39.941Z,58.21
2022-09-09T23:21:44.400Z,59.48
2022-09-09T23:26:47.767Z,58.95
2022-09-09T23:31:51.300Z,59.82
2022-09-09T23:36:54.659Z,60.58
2022-09-09T23:41:57.919Z,61.08
2022-09-09T23:47:02.421Z,61.87
2022-09-09T23:52:07.226Z,62.14
2022-09-09T23:57:13.789Z,62.60
